Time;durP1;ratioP1;P1;durP2;ratioP2;P2;SDS_P1;SDS_P2;PMS_P1;PMS_P2;Temp;Humidity;BMP_temperature;BMP_pressure;BME280_temperature;BME280_humidity;BME280_pressure;Samples;Min_cycle;Max_cycle;Signal;HPM_P1;HPM_P2
2023/04/25 00:01:59;;;;;;;21.45;17.52;;;;;;;13.40;94.63;99510.59;5038911;28;20087;-70
2023/04/25 00:04:25;;;;;;;21.60;18.10;;;;;;;13.45;94.73;99509.06;5023603;28;20033;-70
2023/04/25 00:06:52;;;;;;;19.50;17.27;;;;;;;13.35;95.07;99497.03;5040098;28;20095;-70
2023/04/25 00:09:17;;;;;;;22.42;18.30;;;;;;;13.34;95.54;99497.28;5041042;28;20083;-70
2023/04/25 00:11:43;;;;;;;21.05;18.10;;;;;;;13.27;95.73;99480.44;5056973;28;20033;-70
2023/04/25 00:14:08;;;;;;;23.10;18.58;;;;;;;13.34;95.63;99495.41;5044463;28;20032;-70
2023/04/25 00:16:34;;;;;;;23.73;19.13;;;;;;;13.34;96.04;99494.56;5041303;28;20052;-70
2023/04/25 00:19:02;;;;;;;21.25;18.15;;;;;;;13.34;96.00;99497.28;5038853;28;20025;-69
2023/04/25 00:21:29;;;;;;;22.30;18.35;;;;;;;13.26;96.52;99492.31;5056004;28;20116;-70
2023/04/25 00:23:55;;;;;;;19.70;17.58;;;;;;;13.22;96.62;99489.25;5041814;28;20034;-70
2023/04/25 00:26:21;;;;;;;23.48;18.17;;;;;;;13.27;96.36;99493.94;5042353;28;20033;-70
2023/04/25 00:28:47;;;;;;;21.63;18.25;;;;;;;13.25;96.45;99490.69;5041282;28;20157;-70
2023/04/25 00:31:13;;;;;;;21.88;18.60;;;;;;;13.30;96.43;99494.25;5041595;28;20104;-70
2023/04/25 00:33:38;;;;;;;23.60;18.00;;;;;;;13.24;96.73;99486.28;5037274;28;20037;-70
2023/04/25 00:36:04;;;;;;;25.90;19.13;;;;;;;13.17;96.69;99481.06;5040453;28;20123;-69
2023/04/25 00:38:29;;;;;;;23.10;18.60;;;;;;;13.21;96.71;99486.78;5039813;28;20068;-70
2023/04/25 00:40:55;;;;;;;24.38;19.13;;;;;;;13.15;97.16;99489.44;5039333;28;20029;-70
2023/04/25 00:43:21;;;;;;;25.33;19.48;;;;;;;13.11;96.91;99491.00;5056526;28;20112;-70
2023/04/25 00:45:48;;;;;;;24.88;19.10;;;;;;;13.06;97.34;99487.41;5039766;28;20037;-70
2023/04/25 00:48:14;;;;;;;27.80;19.77;;;;;;;13.06;97.06;99488.22;5040990;28;20037;-70
2023/04/25 00:50:41;;;;;;;24.90;19.40;;;;;;;13.07;97.26;99486.31;5039438;28;20076;-70
2023/04/25 00:53:06;;;;;;;25.02;19.40;;;;;;;13.06;97.17;99482.00;5055191;28;20568;-70
2023/04/25 00:55:34;;;;;;;28.50;19.85;;;;;;;13.06;97.25;99487.41;5040418;28;20045;-70
2023/04/25 00:58:00;;;;;;;25.45;20.42;;;;;;;13.02;97.71;99489.78;5024017;28;20053;-69
2023/04/25 01:00:25;;;;;;;25.67;20.27;;;;;;;13.05;97.72;99477.66;5034602;28;20630;-69
2023/04/25 01:02:51;;;;;;;27.73;20.52;;;;;;;13.00;97.40;99473.00;5039177;28;20443;-70
2023/04/25 01:05:18;;;;;;;28.35;20.92;;;;;;;13.13;97.39;99488.84;5038475;28;20032;-70
2023/04/25 01:07:44;;;;;;;27.45;21.50;;;;;;;13.14;97.61;99486.97;5040817;28;20405;-70
2023/04/25 01:10:10;;;;;;;30.98;21.65;;;;;;;13.14;97.29;99485.09;5055632;28;20055;-69
2023/04/25 01:12:35;;;;;;;32.60;22.85;;;;;;;13.02;97.14;99465.47;5038892;28;20101;-70
2023/04/25 01:15:01;;;;;;;33.63;22.42;;;;;;;13.08;98.05;99477.19;5054682;28;20037;-70
2023/04/25 01:17:27;;;;;;;32.75;23.38;;;;;;;13.02;98.08;99487.06;5020617;28;20030;-70
2023/04/25 01:19:53;;;;;;;32.13;23.38;;;;;;;13.01;98.56;99471.91;5054251;28;20396;-70
2023/04/25 01:22:19;;;;;;;35.22;23.80;;;;;;;13.04;98.42;99473.31;5039749;28;20047;-70
2023/04/25 01:24:45;;;;;;;40.20;24.83;;;;;;;12.97;98.56;99473.47;5048899;28;20117;-70
2023/04/25 01:27:11;;;;;;;40.28;25.00;;;;;;;13.03;98.49;99472.50;5058027;28;20026;-70
2023/04/25 01:29:36;;;;;;;36.70;25.13;;;;;;;12.84;99.15;99453.03;5034670;28;20033;-70
2023/04/25 01:32:03;;;;;;;37.42;24.92;;;;;;;12.95;99.17;99470.22;5039418;28;20075;-70
2023/04/25 01:34:29;;;;;;;35.30;24.75;;;;;;;12.93;99.14;99475.06;5021333;28;20026;-71
2023/04/25 01:36:55;;;;;;;35.55;24.25;;;;;;;12.88;99.72;99475.81;5037560;28;20080;-70
2023/04/25 01:39:21;;;;;;;34.83;24.15;;;;;;;12.79;99.76;99454.88;5037174;28;20037;-70
2023/04/25 01:41:47;;;;;;;37.42;25.38;;;;;;;12.89;99.79;99469.31;5037419;28;20048;-70
2023/04/25 01:44:14;;;;;;;35.80;26.10;;;;;;;12.90;99.34;99462.84;5038173;28;20021;-70
2023/04/25 01:46:40;;;;;;;34.42;26.20;;;;;;;12.90;99.66;99470.16;5020667;28;20036;-70
2023/04/25 01:49:06;;;;;;;35.42;25.85;;;;;;;12.83;99.75;99462.22;5054700;28;20037;-70
2023/04/25 01:51:31;;;;;;;37.38;26.90;;;;;;;12.85;100.00;99461.97;5037986;28;20096;-70
2023/04/25 01:53:57;;;;;;;37.50;26.23;;;;;;;12.80;100.00;99461.88;5039676;28;20036;-70
2023/04/25 01:56:23;;;;;;;42.78;26.85;;;;;;;12.80;100.00;99460.00;5039657;28;20087;-69
2023/04/25 01:58:48;;;;;;;36.30;25.38;;;;;;;12.86;99.90;99464.41;5037612;28;20029;-70
2023/04/25 02:01:14;;;;;;;37.40;26.27;;;;;;;12.83;99.84;99462.22;5039609;28;20029;-70
2023/04/25 02:03:40;;;;;;;38.75;25.20;;;;;;;12.89;99.88;99455.00;5036427;28;20508;-69
2023/04/25 02:06:05;;;;;;;36.08;25.10;;;;;;;12.87;100.00;99457.94;5038151;28;20037;-69
2023/04/25 02:08:31;;;;;;;34.88;25.65;;;;;;;12.88;100.00;99470.41;5039740;28;20041;-69
2023/04/25 02:10:57;;;;;;;34.95;24.45;;;;;;;12.85;99.90;99453.88;5038775;28;20061;-69
2023/04/25 02:13:22;;;;;;;33.72;24.30;;;;;;;12.74;100.00;99444.78;5045304;28;20403;-69
2023/04/25 02:15:47;;;;;;;33.67;23.88;;;;;;;12.73;100.00;99428.84;5041261;28;20068;-69
2023/04/25 02:18:15;;;;;;;32.50;23.83;;;;;;;12.78;100.00;99443.25;5036438;28;20064;-69
2023/04/25 02:20:41;;;;;;;33.22;23.35;;;;;;;12.67;100.00;99425.25;5039132;28;20026;-69
2023/04/25 02:23:07;;;;;;;28.70;22.38;;;;;;;12.78;100.00;99450.50;5038843;28;20071;-70
2023/04/25 02:25:32;;;;;;;31.83;23.17;;;;;;;12.67;100.00;99423.38;5039255;28;20044;-69
2023/04/25 02:27:57;;;;;;;29.30;21.80;;;;;;;12.76;100.00;99439.97;5020554;28;20124;-69
2023/04/25 02:30:23;;;;;;;31.65;22.60;;;;;;;12.79;100.00;99435.97;5032821;28;20033;-70
2023/04/25 02:32:48;;;;;;;29.13;22.05;;;;;;;12.81;100.00;99431.94;5036113;28;20029;-70
2023/04/25 02:35:14;;;;;;;29.80;22.38;;;;;;;12.63;100.00;99434.91;5036377;28;20496;-70
2023/04/25 02:37:40;;;;;;;28.50;21.45;;;;;;;12.60;100.00;99440.81;5037031;28;20136;-69
2023/04/25 02:40:06;;;;;;;27.75;21.48;;;;;;;12.69;100.00;99434.75;5037864;28;20032;-69
2023/04/25 02:42:31;;;;;;;30.65;23.02;;;;;;;12.59;100.00;99417.59;5036981;28;20108;-69
2023/04/25 02:44:57;;;;;;;30.27;22.85;;;;;;;12.68;100.00;99424.19;5053165;28;20506;-69
2023/04/25 02:47:22;;;;;;;33.65;23.25;;;;;;;12.75;100.00;99426.72;5003672;28;20048;-69
2023/04/25 02:49:48;;;;;;;29.17;22.08;;;;;;;12.72;100.00;99425.34;5038127;28;20025;-69
2023/04/25 02:52:13;;;;;;;32.55;23.75;;;;;;;12.72;100.00;99419.13;5037451;28;20037;-69
2023/04/25 02:54:40;;;;;;;32.13;22.60;;;;;;;12.76;100.00;99420.28;5020031;28;20029;-69
2023/04/25 02:57:05;;;;;;;30.85;22.23;;;;;;;12.73;100.00;99418.06;5036357;28;20402;-69
2023/04/25 02:59:31;;;;;;;32.83;22.90;;;;;;;12.65;100.00;99406.63;5052359;28;20041;-69
2023/04/25 03:01:56;;;;;;;31.38;22.55;;;;;;;12.78;100.00;99421.66;5037867;28;20040;-69
2023/04/25 03:04:23;;;;;;;30.23;22.90;;;;;;;12.70;100.00;99406.69;5019131;28;20030;-70
2023/04/25 03:06:49;;;;;;;33.15;22.65;;;;;;;12.73;100.00;99412.66;5037831;28;20025;-69
2023/04/25 03:09:15;;;;;;;34.65;23.52;;;;;;;12.76;100.00;99407.59;5053003;28;20029;-69
2023/04/25 03:11:40;;;;;;;32.15;23.15;;;;;;;12.70;100.00;99412.09;5036757;28;20052;-69
2023/04/25 03:14:06;;;;;;;32.92;21.98;;;;;;;12.74;100.00;99411.59;5037644;28;20085;-69
2023/04/25 03:16:31;;;;;;;35.65;24.15;;;;;;;12.76;100.00;99414.88;5038420;28;20488;-70
2023/04/25 03:18:57;;;;;;;36.22;23.05;;;;;;;12.50;100.00;99387.50;5037209;28;20057;-70
2023/04/25 03:21:22;;;;;;;34.40;24.00;;;;;;;12.64;100.00;99412.25;5036161;28;20029;-69
2023/04/25 03:23:48;;;;;;;32.55;23.40;;;;;;;12.66;100.00;99397.44;5020809;28;20060;-69
2023/04/25 03:26:14;;;;;;;37.20;23.38;;;;;;;12.55;100.00;99382.19;5019575;28;20076;-69
2023/04/25 03:28:40;;;;;;;33.95;23.60;;;;;;;12.57;100.00;99387.31;5037803;28;20104;-70
2023/04/25 03:31:05;;;;;;;37.85;25.02;;;;;;;12.68;100.00;99406.13;5036413;28;20048;-69
2023/04/25 03:33:31;;;;;;;41.70;25.25;;;;;;;12.67;100.00;99395.56;5035020;28;20034;-69
2023/04/25 03:35:56;;;;;;;37.45;25.52;;;;;;;12.67;100.00;99396.38;5034710;28;20065;-70
2023/04/25 03:38:22;;;;;;;35.35;25.23;;;;;;;12.60;100.00;99386.84;5036778;28;20033;-69
2023/04/25 03:40:47;;;;;;;36.33;24.85;;;;;;;12.49;100.00;99379.66;5037952;28;20044;-70
2023/04/25 03:43:12;;;;;;;37.83;25.55;;;;;;;12.65;100.00;99395.81;5037971;28;20453;-69
2023/04/25 03:45:38;;;;;;;38.22;26.20;;;;;;;12.66;100.00;99394.75;5037568;28;20514;-69
2023/04/25 03:48:03;;;;;;;39.42;24.85;;;;;;;12.67;100.00;99393.69;5038204;28;20045;-69
2023/04/25 03:50:29;;;;;;;38.67;26.10;;;;;;;12.66;100.00;99386.66;5053547;28;20026;-69
2023/04/25 03:52:54;;;;;;;40.90;25.50;;;;;;;12.70;100.00;99382.38;5036527;28;20124;-72
2023/04/25 03:55:20;;;;;;;40.85;25.85;;;;;;;12.73;100.00;99386.47;5036917;28;20037;-69
2023/04/25 03:57:46;;;;;;;35.33;24.45;;;;;;;12.72;100.00;99384.06;5036697;28;20033;-70
2023/04/25 04:00:12;;;;;;;41.58;24.55;;;;;;;12.72;100.00;99384.06;5018345;28;20124;-69
2023/04/25 04:02:38;;;;;;;37.85;25.63;;;;;;;12.70;100.00;99381.59;5047879;28;20064;-70
2023/04/25 04:05:05;;;;;;;42.33;25.65;;;;;;;12.72;100.00;99379.47;5053144;28;20033;-69
2023/04/25 04:07:32;;;;;;;40.35;26.55;;;;;;;12.68;100.00;99371.03;5053469;28;20057;-66
2023/04/25 04:09:58;;;;;;;45.30;26.02;;;;;;;12.65;100.00;99378.81;5039365;28;20053;-69
2023/04/25 04:12:23;;;;;;;45.67;25.95;;;;;;;12.76;100.00;99385.19;5037626;28;20503;-68
2023/04/25 04:14:49;;;;;;;43.80;25.92;;;;;;;12.81;100.00;99386.06;5038224;28;20038;-69
2023/04/25 04:17:14;;;;;;;44.50;25.70;;;;;;;12.75;100.00;99378.97;5041414;28;20022;-70
2023/04/25 04:19:41;;;;;;;44.80;24.17;;;;;;;12.83;100.00;99392.03;5043547;28;20029;-70
2023/04/25 04:22:07;;;;;;;44.17;23.75;;;;;;;12.73;100.00;99375.69;5043588;28;20136;-69
2023/04/25 04:24:33;;;;;;;39.38;22.67;;;;;;;12.82;100.00;99395.81;5039986;28;20025;-70
2023/04/25 04:26:58;;;;;;;37.25;22.33;;;;;;;12.84;100.00;99398.25;5041433;28;20091;-69
2023/04/25 04:29:24;;;;;;;36.97;21.45;;;;;;;12.81;100.00;99391.44;5055003;28;20060;-70
2023/04/25 04:31:52;;;;;;;34.45;21.08;;;;;;;12.82;100.00;99392.28;5021947;28;20503;-68
2023/04/25 04:34:18;;;;;;;33.28;19.88;;;;;;;12.78;100.00;99396.53;5040051;28;20017;-69
2023/04/25 04:36:45;;;;;;;28.35;18.08;;;;;;;12.78;100.00;99405.47;5021614;28;20080;-69
2023/04/25 04:39:12;;;;;;;29.25;18.05;;;;;;;12.79;100.00;99398.19;5039918;28;20044;-69
2023/04/25 04:41:37;;;;;;;27.52;17.80;;;;;;;12.65;100.00;99385.03;5040193;28;20021;-69
2023/04/25 04:44:03;;;;;;;25.45;16.33;;;;;;;12.76;100.00;99398.69;5040313;28;20041;-69
2023/04/25 04:46:30;;;;;;;20.70;12.90;;;;;;;12.64;100.00;99383.38;5040730;28;20032;-69
2023/04/25 04:48:56;;;;;;;20.35;11.07;;;;;;;12.74;100.00;99398.91;5039347;28;20044;-69
2023/04/25 04:51:21;;;;;;;17.30;10.25;;;;;;;12.65;100.00;99398.53;5039612;28;20087;-70
2023/04/25 04:53:47;;;;;;;17.70;10.32;;;;;;;12.73;100.00;99401.88;5039797;28;20033;-70
2023/04/25 04:56:12;;;;;;;14.23;9.45;;;;;;;12.74;100.00;99407.00;5038288;28;20030;-70
2023/04/25 04:58:38;;;;;;;14.40;9.43;;;;;;;12.73;100.00;99407.25;5038567;28;20033;-69
2023/04/25 05:01:03;;;;;;;13.05;8.55;;;;;;;12.75;100.00;99411.34;5005006;28;20256;-70
2023/04/25 05:03:29;;;;;;;12.73;8.38;;;;;;;12.77;100.00;99405.69;5016765;28;20022;-70
2023/04/25 05:05:54;;;;;;;12.65;7.47;;;;;;;12.71;100.00;99404.78;5036276;28;20034;-71
2023/04/25 05:08:20;;;;;;;12.13;7.65;;;;;;;12.70;100.00;99409.38;5038389;28;20032;-69
2023/04/25 05:10:45;;;;;;;14.15;8.20;;;;;;;12.67;100.00;99409.88;5038248;28;20064;-69
2023/04/25 05:13:11;;;;;;;12.13;8.30;;;;;;;12.73;100.00;99418.88;5039919;28;20033;-69
2023/04/25 05:15:36;;;;;;;12.75;8.30;;;;;;;12.74;100.00;99414.28;5038865;28;20038;-70
2023/04/25 05:18:02;;;;;;;13.57;9.05;;;;;;;12.70;100.00;99403.97;5038575;28;20093;-70
2023/04/25 05:20:27;;;;;;;16.10;9.50;;;;;;;12.76;100.00;99417.56;5038340;28;20037;-69
2023/04/25 05:22:52;;;;;;;12.88;9.18;;;;;;;12.68;100.00;99397.19;5042267;28;20242;-69
2023/04/25 05:25:18;;;;;;;18.55;10.73;;;;;;;12.66;100.00;99397.44;5039100;28;20021;-70
2023/04/25 05:27:43;;;;;;;18.75;10.85;;;;;;;12.71;100.00;99415.59;5021052;28;20132;-70
2023/04/25 05:30:09;;;;;;;19.45;11.55;;;;;;;12.76;100.00;99414.88;5040976;28;20435;-70
2023/04/25 05:32:35;;;;;;;16.38;10.15;;;;;;;12.72;100.00;99413.75;5042844;28;20033;-69
2023/04/25 05:35:01;;;;;;;17.48;11.02;;;;;;;12.57;100.00;99406.22;5040200;28;20029;-69
2023/04/25 05:37:26;;;;;;;19.05;9.90;;;;;;;12.57;100.00;99417.00;5022876;28;20054;-69
2023/04/25 05:39:52;;;;;;;16.10;7.40;;;;;;;12.67;100.00;99423.38;5039966;28;20044;-69
2023/04/25 05:42:17;;;;;;;13.85;5.90;;;;;;;12.63;100.00;99424.94;5041251;28;20060;-69
2023/04/25 05:44:43;;;;;;;14.70;5.10;;;;;;;12.50;100.00;99430.66;5042072;28;20076;-70
2023/04/25 05:47:08;;;;;;;14.35;4.15;;;;;;;12.53;100.00;99437.44;5042212;28;20090;-70
2023/04/25 05:49:34;;;;;;;16.05;4.65;;;;;;;12.56;100.00;99435.06;5024635;28;20041;-70
2023/04/25 05:52:00;;;;;;;14.32;3.75;;;;;;;12.58;100.00;99432.97;5042405;28;20025;-69
2023/04/25 05:54:25;;;;;;;17.80;4.18;;;;;;;12.49;100.00;99422.81;5040660;28;20037;-69
2023/04/25 05:56:51;;;;;;;12.00;3.58;;;;;;;12.66;100.00;99442.53;5041981;28;20044;-70
2023/04/25 05:59:16;;;;;;;15.82;3.50;;;;;;;12.60;100.00;99447.00;5040655;28;20029;-70
2023/04/25 06:01:42;;;;;;;14.38;3.22;;;;;;;12.55;100.00;99433.44;5039039;28;20119;-70
2023/04/25 06:04:07;;;;;;;13.52;3.30;;;;;;;12.12;100.00;99367.47;5021240;28;20439;-69
2023/04/25 06:06:32;;;;;;;9.57;2.42;;;;;;;12.50;100.00;99444.16;5009760;28;20033;-70
2023/04/25 06:08:58;;;;;;;14.52;2.88;;;;;;;12.52;100.00;99441.22;5044208;28;20017;-69
2023/04/25 06:11:23;;;;;;;13.25;2.85;;;;;;;12.47;100.00;99450.03;5034607;28;20064;-70
2023/04/25 06:13:49;;;;;;;11.80;2.70;;;;;;;12.37;100.00;99453.38;5037712;28;20122;-70
2023/04/25 06:16:15;;;;;;;8.82;2.30;;;;;;;12.41;100.00;99457.22;5036568;28;20120;-70
2023/04/25 06:18:40;;;;;;;9.73;2.28;;;;;;;12.11;100.00;99432.41;5037343;28;20053;-70
2023/04/25 06:21:06;;;;;;;6.97;2.20;;;;;;;12.14;100.00;99457.03;5037606;28;20503;-70
2023/04/25 06:23:31;;;;;;;7.07;1.75;;;;;;;12.04;100.00;99456.03;5038635;28;20479;-70
2023/04/25 06:25:57;;;;;;;7.78;1.70;;;;;;;11.94;100.00;99462.03;5036598;28;20041;-70
2023/04/25 06:28:24;;;;;;;8.40;1.80;;;;;;;11.90;100.00;99452.81;5038161;28;20044;-69
2023/04/25 06:30:49;;;;;;;9.00;1.52;;;;;;;11.98;100.00;99468.56;5036379;28;20080;-71
2023/04/25 06:33:15;;;;;;;4.85;1.23;;;;;;;12.00;100.00;99469.16;5034360;28;20045;-69
2023/04/25 06:35:40;;;;;;;8.25;1.55;;;;;;;12.06;100.00;99472.78;5036093;28;20033;-70
2023/04/25 06:38:06;;;;;;;6.93;1.80;;;;;;;12.02;100.00;99466.22;5038477;28;20133;-70
2023/04/25 06:40:31;;;;;;;7.10;1.30;;;;;;;11.99;100.00;99472.94;5039632;28;20038;-70
2023/04/25 06:42:57;;;;;;;8.52;1.80;;;;;;;12.04;100.00;99474.91;5040866;28;20503;-69
2023/04/25 06:45:23;;;;;;;7.40;1.50;;;;;;;12.12;100.00;99478.03;5042285;28;20045;-70
2023/04/25 06:47:48;;;;;;;10.10;1.40;;;;;;;12.15;100.00;99480.25;5041339;28;20097;-70
2023/04/25 06:50:13;;;;;;;7.75;1.30;;;;;;;12.31;99.53;99491.28;5041280;28;20115;-70
2023/04/25 06:52:39;;;;;;;9.43;1.38;;;;;;;12.03;100.00;99490.25;5040187;28;20128;-70
2023/04/25 06:55:05;;;;;;;10.07;1.20;;;;;;;12.04;100.00;99493.78;5039840;28;20139;-70
2023/04/25 06:57:30;;;;;;;7.07;1.10;;;;;;;12.15;100.00;99496.44;5041476;28;20117;-70
2023/04/25 06:59:56;;;;;;;5.72;1.10;;;;;;;12.05;100.00;99493.50;5040279;28;20548;-70
2023/04/25 07:02:22;;;;;;;9.38;1.13;;;;;;;12.03;100.00;99489.44;5040788;28;20052;-70
2023/04/25 07:04:47;;;;;;;4.78;1.05;;;;;;;11.87;100.00;99497.22;5019268;28;20480;-69
2023/04/25 07:07:13;;;;;;;11.45;1.00;;;;;;;11.98;100.00;99507.13;5020587;28;20029;-69
2023/04/25 07:09:38;;;;;;;7.00;1.10;;;;;;;11.77;100.00;99513.16;5039568;28;20036;-70
2023/04/25 07:12:04;;;;;;;9.05;0.93;;;;;;;11.77;100.00;99505.88;5041253;28;20101;-70
2023/04/25 07:14:30;;;;;;;6.80;1.00;;;;;;;11.64;100.00;99502.66;5041447;28;20060;-70
2023/04/25 07:16:58;;;;;;;5.72;0.98;;;;;;;11.58;100.00;99498.22;5041552;28;20060;-70
2023/04/25 07:19:26;;;;;;;5.65;0.80;;;;;;;11.67;100.00;99518.34;5025701;28;20048;-70
2023/04/25 07:21:52;;;;;;;5.93;0.90;;;;;;;11.73;100.00;99520.91;5042838;28;20243;-70
2023/04/25 07:24:17;;;;;;;4.40;0.88;;;;;;;11.74;100.00;99527.13;5041080;28;20084;-70
2023/04/25 07:26:43;;;;;;;4.25;0.70;;;;;;;11.64;100.00;99508.03;5038520;28;20030;-70
2023/04/25 07:29:08;;;;;;;6.20;0.80;;;;;;;11.62;100.00;99513.69;5037512;28;20493;-69
2023/04/25 07:31:34;;;;;;;3.42;0.77;;;;;;;11.87;99.30;99534.97;5036549;28;20469;-69
2023/04/25 07:33:59;;;;;;;7.18;0.80;;;;;;;11.82;99.41;99534.00;5036612;28;20025;-69
2023/04/25 07:36:26;;;;;;;4.32;0.95;;;;;;;11.68;100.00;99533.44;5036761;28;20057;-70
2023/04/25 07:38:51;;;;;;;5.82;0.70;;;;;;;11.84;99.61;99550.75;5039400;28;20029;-70
2023/04/25 07:41:17;;;;;;;2.72;0.60;;;;;;;11.74;99.62;99545.97;5040582;28;20030;-69
2023/04/25 07:43:42;;;;;;;4.03;0.70;;;;;;;11.61;99.65;99547.03;5038911;28;20025;-69
2023/04/25 07:46:07;;;;;;;3.65;0.50;;;;;;;11.62;99.33;99547.88;5038634;28;20034;-70
2023/04/25 07:48:33;;;;;;;3.60;0.60;;;;;;;11.44;99.62;99557.72;5041312;28;20025;-70
2023/04/25 07:50:58;;;;;;;4.15;0.50;;;;;;;11.21;100.00;99558.53;5041903;28;20029;-70
2023/04/25 07:53:24;;;;;;;5.28;0.40;;;;;;;11.41;98.71;99560.06;5037741;28;20026;-70
2023/04/25 07:55:50;;;;;;;4.20;0.40;;;;;;;11.12;99.87;99569.91;5043724;28;20086;-70
2023/04/25 07:58:20;;;;;;;4.38;0.50;;;;;;;11.24;99.08;99573.44;5044202;28;20080;-70
2023/04/25 08:00:46;;;;;;;3.13;0.38;;;;;;;11.24;97.98;99571.53;5042134;28;20029;-70
2023/04/25 08:03:12;;;;;;;2.70;0.50;;;;;;;11.12;98.60;99575.28;5037970;28;20065;-70
2023/04/25 08:05:37;;;;;;;3.65;0.40;;;;;;;11.06;98.26;99579.75;5026245;28;20021;-70
2023/04/25 08:08:03;;;;;;;3.20;0.43;;;;;;;10.94;98.78;99573.50;5044181;28;20133;-70
2023/04/25 08:10:28;;;;;;;2.90;0.45;;;;;;;11.13;98.42;99587.72;5043526;28;20036;-70
2023/04/25 08:12:53;;;;;;;2.88;0.47;;;;;;;11.10;97.99;99583.59;5044786;28;20045;-70
2023/04/25 08:15:19;;;;;;;4.57;0.52;;;;;;;11.03;97.91;99589.09;5044072;28;20121;-70
2023/04/25 08:17:45;;;;;;;4.50;0.50;;;;;;;11.23;97.12;99588.75;5042927;28;20037;-70
2023/04/25 08:20:11;;;;;;;4.10;0.50;;;;;;;10.94;96.88;99551.97;5027715;28;20079;-70
2023/04/25 08:22:36;;;;;;;1.25;0.40;;;;;;;11.17;96.96;99592.38;5054215;28;20032;-70
2023/04/25 08:25:02;;;;;;;2.88;0.40;;;;;;;11.02;97.74;99592.00;5054294;28;20033;-69
2023/04/25 08:27:28;;;;;;;2.58;0.30;;;;;;;11.22;96.76;99602.44;5055046;28;20048;-69
2023/04/25 08:29:55;;;;;;;2.78;0.30;;;;;;;11.14;97.22;99600.91;5029596;28;20053;-70
2023/04/25 08:32:21;;;;;;;3.75;0.75;;;;;;;11.10;96.64;99605.13;5046143;28;20025;-70
2023/04/25 08:34:47;;;;;;;4.05;1.13;;;;;;;11.06;96.64;99609.34;5028131;28;20029;-70
2023/04/25 08:37:12;;;;;;;8.05;3.70;;;;;;;11.16;95.87;99606.91;5040124;28;20110;-70
2023/04/25 08:39:38;;;;;;;9.38;2.90;;;;;;;11.29;95.29;99614.78;5043890;28;20454;-70
2023/04/25 08:42:10;;;;;;;3.97;0.80;;;;;;;11.29;95.70;99613.91;5044943;28;20045;-70
2023/04/25 08:44:36;;;;;;;6.97;4.88;;;;;;;11.33;95.17;99619.69;5044430;28;20516;-70
2023/04/25 08:47:04;;;;;;;11.52;2.83;;;;;;;11.26;95.82;99625.19;5043362;28;20089;-70
2023/04/25 08:49:34;;;;;;;5.80;2.95;;;;;;;11.41;94.86;99628.22;5041863;28;20072;-70
2023/04/25 08:52:04;;;;;;;5.32;1.90;;;;;;;10.70;95.93;99562.69;5043925;28;20093;-70
2023/04/25 08:54:31;;;;;;;36.85;28.02;;;;;;;10.95;96.70;99651.31;5026280;28;20382;-70
2023/04/25 08:56:58;;;;;;;58.25;35.38;;;;;;;11.24;94.94;99644.25;5042491;28;20029;-70
2023/04/25 08:59:23;;;;;;;22.60;14.35;;;;;;;11.00;95.16;99631.81;5043502;28;20428;-70
2023/04/25 09:01:50;;;;;;;60.05;38.10;;;;;;;11.23;94.49;99637.22;5041447;28;20382;-70
2023/04/25 09:04:15;;;;;;;25.30;15.60;;;;;;;11.16;94.79;99662.59;5042392;28;20028;-70
2023/04/25 09:06:41;;;;;;;12.02;6.32;;;;;;;11.02;93.82;99629.69;5044043;28;20041;-70
2023/04/25 09:09:08;;;;;;;20.80;13.25;;;;;;;11.19;93.49;99656.75;5043353;28;20080;-70
2023/04/25 09:11:38;;;;;;;15.57;10.55;;;;;;;11.22;93.36;99670.56;5043689;28;20032;-69
2023/04/25 09:14:14;;;;;;;19.08;11.95;;;;;;;11.20;93.41;99669.19;5043892;28;20047;-70
2023/04/25 09:17:00;;;;;;;9.90;4.95;;;;;;;11.20;92.81;99669.19;5043698;28;20029;-70
2023/04/25 09:19:30;;;;;;;19.02;13.30;;;;;;;11.35;92.31;99666.84;5042133;28;20036;-69
2023/04/25 09:22:01;;;;;;;9.00;0.93;;;;;;;11.15;93.03;99679.81;5042319;28;20088;-69
2023/04/25 09:24:43;;;;;;;3.58;0.45;;;;;;;11.16;92.62;99687.69;5043173;28;20017;-70
2023/04/25 09:27:10;;;;;;;10.30;2.40;;;;;;;11.12;91.58;99666.81;5043252;28;20037;-70
2023/04/25 09:29:40;;;;;;;4.78;0.80;;;;;;;11.12;91.68;99686.47;5040933;28;20060;-70
2023/04/25 09:32:19;;;;;;;4.53;1.27;;;;;;;10.97;91.47;99692.28;5036353;28;20091;-69
2023/04/25 09:34:50;;;;;;;4.15;0.90;;;;;;;10.81;93.18;99699.13;5039213;28;20026;-69
2023/04/25 09:37:29;;;;;;;3.08;0.82;;;;;;;11.00;91.55;99681.06;5040461;28;20057;-70
2023/04/25 09:39:58;;;;;;;3.30;0.50;;;;;;;11.07;91.61;99710.59;5040606;28;20029;-70
2023/04/25 09:42:25;;;;;;;3.65;0.40;;;;;;;10.70;92.14;99699.91;5042029;28;20033;-69
2023/04/25 09:44:55;;;;;;;5.20;0.45;;;;;;;10.96;91.05;99716.72;5045722;28;20030;-69
2023/04/25 09:47:23;;;;;;;2.35;0.38;;;;;;;11.15;90.59;99725.59;5043849;28;20395;-69
2023/04/25 09:49:50;;;;;;;5.18;0.55;;;;;;;11.03;91.35;99726.38;5041921;28;20084;-69
2023/04/25 09:52:18;;;;;;;3.53;0.68;;;;;;;11.00;91.16;99717.94;5038755;28;20022;-70
2023/04/25 09:54:45;;;;;;;4.93;0.60;;;;;;;11.27;89.95;99740.72;5040691;28;20057;-69
2023/04/25 09:57:19;;;;;;;2.15;0.28;;;;;;;11.16;89.56;99729.91;5042298;28;20048;-69
2023/04/25 09:59:47;;;;;;;2.67;0.30;;;;;;;11.40;88.36;99738.91;5041395;28;20068;-70
2023/04/25 10:02:15;;;;;;;4.95;0.40;;;;;;;11.44;87.85;99740.06;5041417;28;20060;-69
2023/04/25 10:04:41;;;;;;;2.40;0.30;;;;;;;11.52;87.13;99728.94;5040734;28;20107;-69
2023/04/25 10:07:08;;;;;;;4.90;0.50;;;;;;;11.27;87.56;99735.34;5039506;28;20116;-69
2023/04/25 10:09:37;;;;;;;4.97;0.40;;;;;;;11.36;88.08;99760.09;5037741;28;20114;-69
2023/04/25 10:12:03;;;;;;;1.60;0.30;;;;;;;11.16;88.06;99755.00;5037138;28;20025;-69
2023/04/25 10:14:32;;;;;;;3.20;0.30;;;;;;;11.31;87.54;99764.50;5039929;28;20037;-70
2023/04/25 10:16:58;;;;;;;2.40;0.40;;;;;;;11.07;87.28;99747.47;5040567;28;20037;-70
2023/04/25 10:19:26;;;;;;;2.85;0.40;;;;;;;11.40;86.56;99768.53;5041028;28;20077;-69
2023/04/25 10:21:52;;;;;;;2.20;0.35;;;;;;;11.41;85.63;99764.78;5042537;28;20036;-69
2023/04/25 10:24:19;;;;;;;0.98;0.30;;;;;;;11.25;85.38;99779.72;5042333;28;20025;-70
2023/04/25 10:26:46;;;;;;;3.15;0.52;;;;;;;10.74;86.95;99784.50;5043373;28;20052;-70
2023/04/25 10:29:12;;;;;;;3.60;0.50;;;;;;;10.89;86.67;99780.59;5048522;28;20056;-70
2023/04/25 10:31:57;;;;;;;3.58;0.50;;;;;;;10.92;85.89;99764.00;5039800;28;20508;-69
2023/04/25 10:34:43;;;;;;;3.88;0.30;;;;;;;11.03;85.69;99796.38;5040047;28;20044;-68
2023/04/25 10:37:13;;;;;;;3.15;0.50;;;;;;;10.88;85.91;99798.63;5035837;28;20053;-70
2023/04/25 10:39:41;;;;;;;3.75;0.50;;;;;;;11.19;84.57;99794.94;5040623;28;20075;-70
2023/04/25 10:42:07;;;;;;;2.28;0.60;;;;;;;11.09;84.50;99807.25;5039879;28;20048;-69
2023/04/25 10:44:33;;;;;;;9.68;4.97;;;;;;;10.95;85.16;99812.81;5040791;28;20048;-69
2023/04/25 10:47:01;;;;;;;16.38;7.72;;;;;;;10.98;84.16;99811.53;5040393;28;20029;-71
2023/04/25 10:49:33;;;;;;;8.13;3.22;;;;;;;10.99;84.06;99808.66;5040024;28;20025;-70
2023/04/25 10:52:12;;;;;;;13.38;11.63;;;;;;;10.85;83.74;99807.13;5040330;28;20136;-70
2023/04/25 10:54:57;;;;;;;7.07;2.72;;;;;;;10.89;83.72;99810.19;5035265;28;20029;-70
2023/04/25 10:57:29;;;;;;;;;;;;;;;10.88;83.48;99809.38;5020373;28;20520;-70
2023/04/25 10:59:59;;;;;;;3.72;0.60;;;;;;;10.76;84.09;99808.47;5037029;28;19917;-69
2023/04/25 11:02:28;;;;;;;1.83;0.60;;;;;;;10.74;84.27;99794.44;5037744;28;20083;-70
2023/04/25 11:04:53;;;;;;;3.17;0.47;;;;;;;10.89;84.13;99813.72;5038740;28;20029;-69
2023/04/25 11:07:22;;;;;;;2.10;0.30;;;;;;;11.07;84.03;99820.16;5038936;28;20129;-69
2023/04/25 11:09:49;;;;;;;2.72;0.50;;;;;;;11.25;83.36;99828.19;5036463;28;20025;-69
2023/04/25 11:12:16;;;;;;;3.30;0.30;;;;;;;10.92;83.60;99801.69;5040616;28;20133;-69
2023/04/25 11:14:41;;;;;;;1.90;0.40;;;;;;;11.14;83.33;99827.09;5022435;28;20604;-70
2023/04/25 11:17:07;;;;;;;3.28;0.60;;;;;;;11.28;82.88;99835.81;5038897;28;20155;-70
2023/04/25 11:19:32;;;;;;;3.65;0.50;;;;;;;11.15;82.62;99835.97;5038388;28;20043;-70